sensor_id;sensor_type;location;lat;lon;timestamp;P1;durP1;ratioP1;P2;durP2;ratioP2
59728;SDS011;45588;51.598;5.618;2023-07-08T00:01:52;7.47;;;6.72;;
59728;SDS011;45588;51.598;5.618;2023-07-08T00:04:18;12.83;;;5.20;;
59728;SDS011;45588;51.598;5.618;2023-07-08T00:06:43;8.03;;;5.30;;
59728;SDS011;45588;51.598;5.618;2023-07-08T00:09:10;9.83;;;7.20;;
59728;SDS011;45588;51.598;5.618;2023-07-08T00:11:36;10.70;;;6.75;;
59728;SDS011;45588;51.598;5.618;2023-07-08T00:14:01;9.50;;;7.07;;
59728;SDS011;45588;51.598;5.618;2023-07-08T00:16:26;8.82;;;5.50;;
59728;SDS011;45588;51.598;5.618;2023-07-08T00:18:51;8.02;;;7.05;;
59728;SDS011;45588;51.598;5.618;2023-07-08T00:21:17;13.90;;;7.40;;
59728;SDS011;45588;51.598;5.618;2023-07-08T00:23:46;4.78;;;4.28;;
59728;SDS011;45588;51.598;5.618;2023-07-08T00:26:13;7.95;;;7.15;;
59728;SDS011;45588;51.598;5.618;2023-07-08T00:28:40;8.85;;;6.50;;
59728;SDS011;45588;51.598;5.618;2023-07-08T00:31:09;8.23;;;5.60;;
59728;SDS011;45588;51.598;5.618;2023-07-08T00:33:35;11.50;;;5.50;;
59728;SDS011;45588;51.598;5.618;2023-07-08T00:36:00;8.85;;;6.82;;
59728;SDS011;45588;51.598;5.618;2023-07-08T00:38:26;6.80;;;6.00;;
59728;SDS011;45588;51.598;5.618;2023-07-08T00:43:32;9.00;;;6.65;;
59728;SDS011;45588;51.598;5.618;2023-07-08T00:46:03;6.10;;;5.38;;
59728;SDS011;45588;51.598;5.618;2023-07-08T00:48:36;8.77;;;6.50;;
59728;SDS011;45588;51.598;5.618;2023-07-08T00:51:02;9.77;;;7.18;;
59728;SDS011;45588;51.598;5.618;2023-07-08T00:53:28;7.10;;;4.82;;
59728;SDS011;45588;51.598;5.618;2023-07-08T00:56:00;9.07;;;6.85;;
59728;SDS011;45588;51.598;5.618;2023-07-08T00:58:30;9.43;;;5.43;;
59728;SDS011;45588;51.598;5.618;2023-07-08T01:00:56;9.38;;;4.68;;
59728;SDS011;45588;51.598;5.618;2023-07-08T01:03:23;8.18;;;4.97;;
59728;SDS011;45588;51.598;5.618;2023-07-08T01:05:49;8.98;;;7.05;;
59728;SDS011;45588;51.598;5.618;2023-07-08T01:08:15;8.23;;;4.57;;
59728;SDS011;45588;51.598;5.618;2023-07-08T01:10:51;7.85;;;6.35;;
59728;SDS011;45588;51.598;5.618;2023-07-08T01:13:17;6.88;;;5.97;;
59728;SDS011;45588;51.598;5.618;2023-07-08T01:15:43;6.45;;;5.10;;
59728;SDS011;45588;51.598;5.618;2023-07-08T01:18:10;5.72;;;4.68;;
59728;SDS011;45588;51.598;5.618;2023-07-08T01:20:39;7.45;;;6.47;;
59728;SDS011;45588;51.598;5.618;2023-07-08T01:23:04;8.65;;;5.60;;
59728;SDS011;45588;51.598;5.618;2023-07-08T01:25:30;10.32;;;7.38;;
59728;SDS011;45588;51.598;5.618;2023-07-08T01:27:56;8.05;;;5.05;;
59728;SDS011;45588;51.598;5.618;2023-07-08T01:30:21;8.65;;;4.78;;
59728;SDS011;45588;51.598;5.618;2023-07-08T01:32:48;8.52;;;6.57;;
59728;SDS011;45588;51.598;5.618;2023-07-08T01:35:14;7.70;;;5.68;;
59728;SDS011;45588;51.598;5.618;2023-07-08T01:37:40;6.22;;;4.70;;
59728;SDS011;45588;51.598;5.618;2023-07-08T01:42:43;7.55;;;5.72;;
59728;SDS011;45588;51.598;5.618;2023-07-08T01:45:13;7.07;;;4.95;;
59728;SDS011;45588;51.598;5.618;2023-07-08T01:47:39;7.80;;;6.43;;
59728;SDS011;45588;51.598;5.618;2023-07-08T01:50:04;8.27;;;6.47;;
59728;SDS011;45588;51.598;5.618;2023-07-08T01:52:29;6.97;;;4.97;;
59728;SDS011;45588;51.598;5.618;2023-07-08T01:54:55;9.00;;;4.82;;
59728;SDS011;45588;51.598;5.618;2023-07-08T01:57:20;10.45;;;4.53;;
59728;SDS011;45588;51.598;5.618;2023-07-08T01:59:45;6.90;;;6.20;;
59728;SDS011;45588;51.598;5.618;2023-07-08T02:02:10;9.50;;;6.55;;
59728;SDS011;45588;51.598;5.618;2023-07-08T02:04:36;7.53;;;5.03;;
59728;SDS011;45588;51.598;5.618;2023-07-08T02:07:01;8.55;;;6.00;;
59728;SDS011;45588;51.598;5.618;2023-07-08T02:09:27;14.95;;;6.22;;
59728;SDS011;45588;51.598;5.618;2023-07-08T02:11:53;6.28;;;5.18;;
59728;SDS011;45588;51.598;5.618;2023-07-08T02:14:18;7.78;;;5.28;;
59728;SDS011;45588;51.598;5.618;2023-07-08T02:16:43;7.07;;;4.65;;
59728;SDS011;45588;51.598;5.618;2023-07-08T02:19:09;7.67;;;5.17;;
59728;SDS011;45588;51.598;5.618;2023-07-08T02:21:35;8.18;;;6.80;;
59728;SDS011;45588;51.598;5.618;2023-07-08T02:24:00;7.10;;;4.97;;
59728;SDS011;45588;51.598;5.618;2023-07-08T02:26:26;11.45;;;5.05;;
59728;SDS011;45588;51.598;5.618;2023-07-08T02:28:51;10.02;;;5.03;;
59728;SDS011;45588;51.598;5.618;2023-07-08T02:31:16;10.20;;;7.05;;
59728;SDS011;45588;51.598;5.618;2023-07-08T02:33:42;9.67;;;7.27;;
59728;SDS011;45588;51.598;5.618;2023-07-08T02:36:07;6.03;;;5.00;;
59728;SDS011;45588;51.598;5.618;2023-07-08T02:38:32;8.83;;;7.17;;
59728;SDS011;45588;51.598;5.618;2023-07-08T02:40:57;8.50;;;6.60;;
59728;SDS011;45588;51.598;5.618;2023-07-08T02:43:23;8.73;;;6.20;;
59728;SDS011;45588;51.598;5.618;2023-07-08T02:45:49;8.45;;;4.95;;
59728;SDS011;45588;51.598;5.618;2023-07-08T02:48:14;7.30;;;5.18;;
59728;SDS011;45588;51.598;5.618;2023-07-08T02:50:39;9.17;;;6.70;;
59728;SDS011;45588;51.598;5.618;2023-07-08T02:53:05;8.03;;;5.57;;
59728;SDS011;45588;51.598;5.618;2023-07-08T02:55:30;6.80;;;6.13;;
59728;SDS011;45588;51.598;5.618;2023-07-08T02:57:55;8.60;;;6.70;;
59728;SDS011;45588;51.598;5.618;2023-07-08T03:00:21;7.90;;;4.30;;
59728;SDS011;45588;51.598;5.618;2023-07-08T03:02:46;7.25;;;5.25;;
59728;SDS011;45588;51.598;5.618;2023-07-08T03:05:11;9.17;;;4.87;;
59728;SDS011;45588;51.598;5.618;2023-07-08T03:07:36;10.00;;;5.97;;
59728;SDS011;45588;51.598;5.618;2023-07-08T03:10:02;6.65;;;5.90;;
59728;SDS011;45588;51.598;5.618;2023-07-08T03:12:27;7.55;;;4.20;;
59728;SDS011;45588;51.598;5.618;2023-07-08T03:14:52;11.70;;;5.20;;
59728;SDS011;45588;51.598;5.618;2023-07-08T03:17:17;6.70;;;6.10;;
59728;SDS011;45588;51.598;5.618;2023-07-08T03:19:44;9.05;;;7.07;;
59728;SDS011;45588;51.598;5.618;2023-07-08T03:22:09;9.32;;;5.00;;
59728;SDS011;45588;51.598;5.618;2023-07-08T03:24:34;7.10;;;4.30;;
59728;SDS011;45588;51.598;5.618;2023-07-08T03:26:59;6.55;;;4.53;;
59728;SDS011;45588;51.598;5.618;2023-07-08T03:29:29;6.28;;;4.60;;
59728;SDS011;45588;51.598;5.618;2023-07-08T03:31:55;7.43;;;5.20;;
59728;SDS011;45588;51.598;5.618;2023-07-08T03:34:20;6.90;;;5.97;;
59728;SDS011;45588;51.598;5.618;2023-07-08T03:36:47;7.87;;;4.90;;
59728;SDS011;45588;51.598;5.618;2023-07-08T03:39:16;8.27;;;6.07;;
59728;SDS011;45588;51.598;5.618;2023-07-08T03:41:41;9.30;;;5.90;;
59728;SDS011;45588;51.598;5.618;2023-07-08T03:44:06;7.20;;;4.57;;
59728;SDS011;45588;51.598;5.618;2023-07-08T03:46:31;7.47;;;4.78;;
59728;SDS011;45588;51.598;5.618;2023-07-08T03:48:56;5.57;;;4.63;;
59728;SDS011;45588;51.598;5.618;2023-07-08T03:51:23;9.27;;;5.30;;
59728;SDS011;45588;51.598;5.618;2023-07-08T03:53:48;7.00;;;5.35;;
59728;SDS011;45588;51.598;5.618;2023-07-08T03:56:14;7.15;;;5.25;;
59728;SDS011;45588;51.598;5.618;2023-07-08T03:58:39;9.43;;;7.45;;
59728;SDS011;45588;51.598;5.618;2023-07-08T04:01:04;10.98;;;6.22;;
59728;SDS011;45588;51.598;5.618;2023-07-08T04:03:30;6.22;;;5.40;;
59728;SDS011;45588;51.598;5.618;2023-07-08T04:05:55;8.13;;;7.33;;
59728;SDS011;45588;51.598;5.618;2023-07-08T04:08:20;7.43;;;6.60;;
59728;SDS011;45588;51.598;5.618;2023-07-08T04:10:45;7.90;;;7.20;;
59728;SDS011;45588;51.598;5.618;2023-07-08T04:13:10;7.27;;;6.50;;
59728;SDS011;45588;51.598;5.618;2023-07-08T04:15:36;8.52;;;5.05;;
59728;SDS011;45588;51.598;5.618;2023-07-08T04:18:01;8.98;;;5.07;;
59728;SDS011;45588;51.598;5.618;2023-07-08T04:20:26;6.73;;;5.23;;
59728;SDS011;45588;51.598;5.618;2023-07-08T04:22:51;7.10;;;6.40;;
59728;SDS011;45588;51.598;5.618;2023-07-08T04:25:17;9.30;;;6.80;;
59728;SDS011;45588;51.598;5.618;2023-07-08T04:27:43;8.38;;;5.60;;
59728;SDS011;45588;51.598;5.618;2023-07-08T04:30:15;9.52;;;5.70;;
59728;SDS011;45588;51.598;5.618;2023-07-08T04:32:42;9.40;;;7.15;;
59728;SDS011;45588;51.598;5.618;2023-07-08T04:35:07;7.33;;;6.47;;
59728;SDS011;45588;51.598;5.618;2023-07-08T04:37:33;7.30;;;6.47;;
59728;SDS011;45588;51.598;5.618;2023-07-08T04:39:58;8.80;;;8.00;;
59728;SDS011;45588;51.598;5.618;2023-07-08T04:42:25;9.77;;;7.18;;
59728;SDS011;45588;51.598;5.618;2023-07-08T04:44:53;8.55;;;5.80;;
59728;SDS011;45588;51.598;5.618;2023-07-08T04:47:19;9.02;;;5.75;;
59728;SDS011;45588;51.598;5.618;2023-07-08T04:49:45;10.13;;;8.32;;
59728;SDS011;45588;51.598;5.618;2023-07-08T04:52:12;8.70;;;7.40;;
59728;SDS011;45588;51.598;5.618;2023-07-08T04:54:37;9.60;;;6.40;;
59728;SDS011;45588;51.598;5.618;2023-07-08T04:57:02;7.07;;;6.17;;
59728;SDS011;45588;51.598;5.618;2023-07-08T04:59:28;6.90;;;5.90;;
59728;SDS011;45588;51.598;5.618;2023-07-08T05:01:53;6.28;;;4.90;;
59728;SDS011;45588;51.598;5.618;2023-07-08T05:04:19;11.60;;;8.20;;
59728;SDS011;45588;51.598;5.618;2023-07-08T05:06:44;9.13;;;8.23;;
59728;SDS011;45588;51.598;5.618;2023-07-08T05:09:09;10.82;;;8.23;;
59728;SDS011;45588;51.598;5.618;2023-07-08T05:11:35;9.80;;;8.10;;
59728;SDS011;45588;51.598;5.618;2023-07-08T05:14:01;12.50;;;8.38;;
59728;SDS011;45588;51.598;5.618;2023-07-08T05:16:26;11.07;;;8.68;;
59728;SDS011;45588;51.598;5.618;2023-07-08T05:18:51;13.10;;;7.90;;
59728;SDS011;45588;51.598;5.618;2023-07-08T05:21:17;15.93;;;7.90;;
59728;SDS011;45588;51.598;5.618;2023-07-08T05:23:44;9.40;;;7.57;;
59728;SDS011;45588;51.598;5.618;2023-07-08T05:26:09;12.32;;;5.45;;
59728;SDS011;45588;51.598;5.618;2023-07-08T05:28:34;8.50;;;7.63;;
59728;SDS011;45588;51.598;5.618;2023-07-08T05:31:00;8.30;;;7.03;;
59728;SDS011;45588;51.598;5.618;2023-07-08T05:33:26;11.00;;;7.93;;
59728;SDS011;45588;51.598;5.618;2023-07-08T05:35:51;8.38;;;7.57;;
59728;SDS011;45588;51.598;5.618;2023-07-08T05:38:16;10.77;;;7.90;;
59728;SDS011;45588;51.598;5.618;2023-07-08T05:40:41;11.77;;;7.80;;
59728;SDS011;45588;51.598;5.618;2023-07-08T05:43:07;10.27;;;7.97;;
59728;SDS011;45588;51.598;5.618;2023-07-08T05:45:32;8.60;;;7.70;;
59728;SDS011;45588;51.598;5.618;2023-07-08T05:47:57;10.32;;;7.53;;
59728;SDS011;45588;51.598;5.618;2023-07-08T05:50:22;8.57;;;7.60;;
59728;SDS011;45588;51.598;5.618;2023-07-08T05:52:48;20.52;;;7.93;;
59728;SDS011;45588;51.598;5.618;2023-07-08T05:55:13;8.67;;;7.77;;
59728;SDS011;45588;51.598;5.618;2023-07-08T05:57:38;10.90;;;8.00;;
59728;SDS011;45588;51.598;5.618;2023-07-08T06:00:04;8.68;;;7.88;;
59728;SDS011;45588;51.598;5.618;2023-07-08T06:02:29;8.02;;;7.22;;
59728;SDS011;45588;51.598;5.618;2023-07-08T06:04:55;13.00;;;8.23;;
59728;SDS011;45588;51.598;5.618;2023-07-08T06:07:20;10.20;;;7.38;;
59728;SDS011;45588;51.598;5.618;2023-07-08T06:09:45;9.93;;;8.10;;
59728;SDS011;45588;51.598;5.618;2023-07-08T06:12:11;9.57;;;8.45;;
59728;SDS011;45588;51.598;5.618;2023-07-08T06:14:36;9.57;;;7.28;;
59728;SDS011;45588;51.598;5.618;2023-07-08T06:17:02;9.05;;;8.07;;
59728;SDS011;45588;51.598;5.618;2023-07-08T06:19:27;9.07;;;7.88;;
59728;SDS011;45588;51.598;5.618;2023-07-08T06:21:52;14.90;;;8.73;;
59728;SDS011;45588;51.598;5.618;2023-07-08T06:24:18;11.45;;;8.55;;
59728;SDS011;45588;51.598;5.618;2023-07-08T06:26:43;8.90;;;8.00;;
59728;SDS011;45588;51.598;5.618;2023-07-08T06:29:08;9.35;;;7.78;;
59728;SDS011;45588;51.598;5.618;2023-07-08T06:31:33;9.73;;;8.33;;
59728;SDS011;45588;51.598;5.618;2023-07-08T06:33:59;9.50;;;8.60;;
59728;SDS011;45588;51.598;5.618;2023-07-08T06:36:24;12.10;;;8.32;;
59728;SDS011;45588;51.598;5.618;2023-07-08T06:38:50;8.93;;;7.83;;
59728;SDS011;45588;51.598;5.618;2023-07-08T06:41:15;11.47;;;7.93;;
59728;SDS011;45588;51.598;5.618;2023-07-08T06:43:40;9.82;;;7.90;;
59728;SDS011;45588;51.598;5.618;2023-07-08T06:46:05;8.68;;;7.70;;
59728;SDS011;45588;51.598;5.618;2023-07-08T06:48:31;9.63;;;8.38;;
59728;SDS011;45588;51.598;5.618;2023-07-08T06:50:57;10.27;;;7.47;;
59728;SDS011;45588;51.598;5.618;2023-07-08T06:53:22;10.77;;;8.02;;
59728;SDS011;45588;51.598;5.618;2023-07-08T06:55:49;9.65;;;7.55;;
59728;SDS011;45588;51.598;5.618;2023-07-08T06:58:14;14.55;;;8.40;;
59728;SDS011;45588;51.598;5.618;2023-07-08T07:00:42;9.37;;;8.00;;
59728;SDS011;45588;51.598;5.618;2023-07-08T07:03:08;10.02;;;7.75;;
59728;SDS011;45588;51.598;5.618;2023-07-08T07:05:33;10.77;;;7.38;;
59728;SDS011;45588;51.598;5.618;2023-07-08T07:07:58;11.57;;;8.40;;
59728;SDS011;45588;51.598;5.618;2023-07-08T07:10:23;10.20;;;7.93;;
59728;SDS011;45588;51.598;5.618;2023-07-08T07:12:49;15.60;;;8.75;;
59728;SDS011;45588;51.598;5.618;2023-07-08T07:15:14;29.57;;;9.57;;
59728;SDS011;45588;51.598;5.618;2023-07-08T07:17:39;11.20;;;8.45;;
59728;SDS011;45588;51.598;5.618;2023-07-08T07:20:04;14.43;;;7.60;;
59728;SDS011;45588;51.598;5.618;2023-07-08T07:22:30;9.82;;;7.20;;
59728;SDS011;45588;51.598;5.618;2023-07-08T07:24:55;12.17;;;7.73;;
59728;SDS011;45588;51.598;5.618;2023-07-08T07:27:21;12.70;;;7.23;;
59728;SDS011;45588;51.598;5.618;2023-07-08T07:29:47;13.10;;;7.93;;
59728;SDS011;45588;51.598;5.618;2023-07-08T07:32:13;11.65;;;8.02;;
59728;SDS011;45588;51.598;5.618;2023-07-08T07:34:38;11.00;;;8.10;;
59728;SDS011;45588;51.598;5.618;2023-07-08T07:37:04;11.73;;;8.10;;
59728;SDS011;45588;51.598;5.618;2023-07-08T07:39:30;16.63;;;8.40;;
59728;SDS011;45588;51.598;5.618;2023-07-08T07:41:55;19.90;;;9.50;;
59728;SDS011;45588;51.598;5.618;2023-07-08T07:44:20;10.20;;;8.67;;
59728;SDS011;45588;51.598;5.618;2023-07-08T07:46:45;10.80;;;8.13;;
59728;SDS011;45588;51.598;5.618;2023-07-08T07:49:12;11.10;;;8.63;;
59728;SDS011;45588;51.598;5.618;2023-07-08T07:51:37;12.35;;;8.70;;
59728;SDS011;45588;51.598;5.618;2023-07-08T07:54:02;11.13;;;8.33;;
59728;SDS011;45588;51.598;5.618;2023-07-08T07:56:27;13.03;;;8.67;;
59728;SDS011;45588;51.598;5.618;2023-07-08T07:58:53;12.05;;;9.38;;
59728;SDS011;45588;51.598;5.618;2023-07-08T08:01:18;14.97;;;9.70;;
59728;SDS011;45588;51.598;5.618;2023-07-08T08:03:44;12.45;;;8.90;;
59728;SDS011;45588;51.598;5.618;2023-07-08T08:06:10;11.93;;;9.50;;
59728;SDS011;45588;51.598;5.618;2023-07-08T08:08:35;12.57;;;9.90;;
59728;SDS011;45588;51.598;5.618;2023-07-08T08:11:00;10.70;;;8.70;;
59728;SDS011;45588;51.598;5.618;2023-07-08T08:13:25;13.13;;;9.90;;
59728;SDS011;45588;51.598;5.618;2023-07-08T08:15:55;14.03;;;9.20;;
59728;SDS011;45588;51.598;5.618;2023-07-08T08:18:20;10.07;;;8.48;;
59728;SDS011;45588;51.598;5.618;2023-07-08T08:20:45;13.80;;;9.37;;
59728;SDS011;45588;51.598;5.618;2023-07-08T08:23:11;15.13;;;9.10;;
59728;SDS011;45588;51.598;5.618;2023-07-08T08:25:36;14.30;;;9.43;;
59728;SDS011;45588;51.598;5.618;2023-07-08T08:28:01;13.23;;;8.63;;
59728;SDS011;45588;51.598;5.618;2023-07-08T08:30:26;16.43;;;9.83;;
59728;SDS011;45588;51.598;5.618;2023-07-08T08:32:51;13.70;;;9.00;;
59728;SDS011;45588;51.598;5.618;2023-07-08T08:35:17;12.68;;;9.68;;
59728;SDS011;45588;51.598;5.618;2023-07-08T08:37:42;15.93;;;10.50;;
59728;SDS011;45588;51.598;5.618;2023-07-08T08:40:09;17.27;;;10.43;;
59728;SDS011;45588;51.598;5.618;2023-07-08T08:42:40;14.85;;;9.43;;
59728;SDS011;45588;51.598;5.618;2023-07-08T08:47:39;14.88;;;9.55;;
59728;SDS011;45588;51.598;5.618;2023-07-08T08:52:49;12.80;;;9.52;;
59728;SDS011;45588;51.598;5.618;2023-07-08T08:55:15;16.75;;;11.02;;
59728;SDS011;45588;51.598;5.618;2023-07-08T09:00:07;15.63;;;10.10;;
59728;SDS011;45588;51.598;5.618;2023-07-08T09:05:17;15.00;;;10.65;;
59728;SDS011;45588;51.598;5.618;2023-07-08T09:07:44;12.17;;;9.23;;
59728;SDS011;45588;51.598;5.618;2023-07-08T09:12:55;16.60;;;10.10;;
59728;SDS011;45588;51.598;5.618;2023-07-08T09:15:22;13.57;;;9.57;;
59728;SDS011;45588;51.598;5.618;2023-07-08T09:17:47;12.87;;;9.83;;
59728;SDS011;45588;51.598;5.618;2023-07-08T09:20:25;15.88;;;10.20;;
59728;SDS011;45588;51.598;5.618;2023-07-08T09:22:56;18.10;;;10.15;;
59728;SDS011;45588;51.598;5.618;2023-07-08T09:27:51;15.05;;;9.85;;
59728;SDS011;45588;51.598;5.618;2023-07-08T09:30:17;13.50;;;9.77;;
59728;SDS011;45588;51.598;5.618;2023-07-08T09:32:43;13.10;;;9.93;;
59728;SDS011;45588;51.598;5.618;2023-07-08T09:35:08;14.07;;;10.57;;
59728;SDS011;45588;51.598;5.618;2023-07-08T09:37:35;17.45;;;11.10;;
59728;SDS011;45588;51.598;5.618;2023-07-08T09:40:03;14.48;;;9.85;;
59728;SDS011;45588;51.598;5.618;2023-07-08T09:42:31;15.52;;;10.63;;
59728;SDS011;45588;51.598;5.618;2023-07-08T09:44:57;16.65;;;10.85;;
59728;SDS011;45588;51.598;5.618;2023-07-08T09:47:27;15.80;;;10.20;;
59728;SDS011;45588;51.598;5.618;2023-07-08T09:49:58;14.88;;;10.68;;
59728;SDS011;45588;51.598;5.618;2023-07-08T09:52:23;15.27;;;10.20;;
59728;SDS011;45588;51.598;5.618;2023-07-08T09:54:49;14.80;;;10.90;;
59728;SDS011;45588;51.598;5.618;2023-07-08T09:57:32;14.73;;;10.25;;
59728;SDS011;45588;51.598;5.618;2023-07-08T09:59:58;15.13;;;10.18;;
59728;SDS011;45588;51.598;5.618;2023-07-08T10:04:52;15.27;;;10.40;;
59728;SDS011;45588;51.598;5.618;2023-07-08T10:07:17;13.85;;;10.20;;
59728;SDS011;45588;51.598;5.618;2023-07-08T10:09:42;15.20;;;10.75;;
59728;SDS011;45588;51.598;5.618;2023-07-08T10:12:08;15.87;;;12.30;;
59728;SDS011;45588;51.598;5.618;2023-07-08T10:14:37;17.90;;;12.93;;
59728;SDS011;45588;51.598;5.618;2023-07-08T10:17:04;17.02;;;11.50;;
59728;SDS011;45588;51.598;5.618;2023-07-08T10:19:29;14.68;;;10.45;;
59728;SDS011;45588;51.598;5.618;2023-07-08T10:34:56;15.82;;;11.00;;
59728;SDS011;45588;51.598;5.618;2023-07-08T10:37:41;18.48;;;11.40;;
59728;SDS011;45588;51.598;5.618;2023-07-08T11:07:28;19.08;;;12.60;;
59728;SDS011;45588;51.598;5.618;2023-07-08T11:09:56;19.05;;;11.77;;
59728;SDS011;45588;51.598;5.618;2023-07-08T11:12:28;15.40;;;11.45;;
59728;SDS011;45588;51.598;5.618;2023-07-08T11:15:13;17.38;;;12.43;;
59728;SDS011;45588;51.598;5.618;2023-07-08T11:20:17;19.45;;;12.10;;
59728;SDS011;45588;51.598;5.618;2023-07-08T11:22:46;18.67;;;12.18;;
59728;SDS011;45588;51.598;5.618;2023-07-08T11:25:16;20.00;;;12.30;;
59728;SDS011;45588;51.598;5.618;2023-07-08T11:32:36;16.63;;;11.68;;
59728;SDS011;45588;51.598;5.618;2023-07-08T11:35:04;16.38;;;11.75;;
59728;SDS011;45588;51.598;5.618;2023-07-08T11:37:30;17.50;;;12.43;;
59728;SDS011;45588;51.598;5.618;2023-07-08T11:40:07;17.15;;;11.32;;
59728;SDS011;45588;51.598;5.618;2023-07-08T11:45:01;17.00;;;11.23;;
59728;SDS011;45588;51.598;5.618;2023-07-08T11:47:41;17.48;;;11.43;;
59728;SDS011;45588;51.598;5.618;2023-07-08T11:52:58;17.45;;;11.48;;
59728;SDS011;45588;51.598;5.618;2023-07-08T11:55:25;19.42;;;11.75;;
59728;SDS011;45588;51.598;5.618;2023-07-08T11:57:53;20.58;;;13.43;;
59728;SDS011;45588;51.598;5.618;2023-07-08T12:00:23;20.50;;;12.48;;
59728;SDS011;45588;51.598;5.618;2023-07-08T12:02:50;17.23;;;12.18;;
59728;SDS011;45588;51.598;5.618;2023-07-08T12:05:15;19.02;;;12.25;;
59728;SDS011;45588;51.598;5.618;2023-07-08T12:07:41;18.20;;;10.98;;
59728;SDS011;45588;51.598;5.618;2023-07-08T12:10:13;18.00;;;12.15;;
59728;SDS011;45588;51.598;5.618;2023-07-08T12:12:41;19.88;;;12.07;;
59728;SDS011;45588;51.598;5.618;2023-07-08T12:15:22;19.02;;;12.80;;
59728;SDS011;45588;51.598;5.618;2023-07-08T12:17:49;15.75;;;11.85;;
59728;SDS011;45588;51.598;5.618;2023-07-08T12:20:29;18.25;;;10.80;;
59728;SDS011;45588;51.598;5.618;2023-07-08T12:22:54;21.10;;;13.30;;
59728;SDS011;45588;51.598;5.618;2023-07-08T12:25:21;20.50;;;11.85;;
59728;SDS011;45588;51.598;5.618;2023-07-08T12:27:47;17.20;;;11.32;;
59728;SDS011;45588;51.598;5.618;2023-07-08T12:30:13;16.25;;;10.82;;
59728;SDS011;45588;51.598;5.618;2023-07-08T12:32:41;15.63;;;11.10;;
59728;SDS011;45588;51.598;5.618;2023-07-08T12:37:42;21.38;;;10.85;;
59728;SDS011;45588;51.598;5.618;2023-07-08T12:40:09;15.43;;;11.40;;
59728;SDS011;45588;51.598;5.618;2023-07-08T12:42:34;15.18;;;10.70;;
59728;SDS011;45588;51.598;5.618;2023-07-08T12:45:00;16.47;;;11.10;;
59728;SDS011;45588;51.598;5.618;2023-07-08T12:47:25;17.67;;;10.57;;
59728;SDS011;45588;51.598;5.618;2023-07-08T12:49:50;14.47;;;9.93;;
59728;SDS011;45588;51.598;5.618;2023-07-08T12:52:19;14.10;;;10.87;;
59728;SDS011;45588;51.598;5.618;2023-07-08T12:54:45;16.30;;;11.52;;
59728;SDS011;45588;51.598;5.618;2023-07-08T12:57:10;17.57;;;10.67;;
59728;SDS011;45588;51.598;5.618;2023-07-08T12:59:36;19.13;;;10.90;;
59728;SDS011;45588;51.598;5.618;2023-07-08T13:02:01;17.93;;;11.70;;
59728;SDS011;45588;51.598;5.618;2023-07-08T13:04:26;16.13;;;10.48;;
59728;SDS011;45588;51.598;5.618;2023-07-08T13:06:51;15.68;;;10.25;;
59728;SDS011;45588;51.598;5.618;2023-07-08T13:09:32;14.38;;;9.38;;
59728;SDS011;45588;51.598;5.618;2023-07-08T13:11:58;14.10;;;9.40;;
59728;SDS011;45588;51.598;5.618;2023-07-08T13:14:25;19.40;;;10.07;;
59728;SDS011;45588;51.598;5.618;2023-07-08T13:16:51;15.73;;;9.52;;
59728;SDS011;45588;51.598;5.618;2023-07-08T13:19:17;13.57;;;9.20;;
59728;SDS011;45588;51.598;5.618;2023-07-08T13:21:43;16.35;;;9.15;;
59728;SDS011;45588;51.598;5.618;2023-07-08T13:24:09;19.35;;;8.27;;
59728;SDS011;45588;51.598;5.618;2023-07-08T13:26:36;13.95;;;8.57;;
59728;SDS011;45588;51.598;5.618;2023-07-08T13:29:05;17.63;;;8.32;;
59728;SDS011;45588;51.598;5.618;2023-07-08T13:31:33;12.75;;;8.52;;
59728;SDS011;45588;51.598;5.618;2023-07-08T13:34:04;15.20;;;8.50;;
59728;SDS011;45588;51.598;5.618;2023-07-08T13:36:34;23.40;;;8.77;;
59728;SDS011;45588;51.598;5.618;2023-07-08T13:39:05;15.25;;;8.52;;
59728;SDS011;45588;51.598;5.618;2023-07-08T13:41:31;16.98;;;8.23;;
59728;SDS011;45588;51.598;5.618;2023-07-08T13:43:56;15.80;;;8.73;;
59728;SDS011;45588;51.598;5.618;2023-07-08T13:46:26;13.50;;;8.57;;
59728;SDS011;45588;51.598;5.618;2023-07-08T13:48:53;18.75;;;9.43;;
59728;SDS011;45588;51.598;5.618;2023-07-08T13:51:19;14.10;;;8.80;;
59728;SDS011;45588;51.598;5.618;2023-07-08T13:53:46;15.02;;;9.15;;
59728;SDS011;45588;51.598;5.618;2023-07-08T13:56:18;12.23;;;8.30;;
59728;SDS011;45588;51.598;5.618;2023-07-08T13:58:44;14.68;;;8.60;;
59728;SDS011;45588;51.598;5.618;2023-07-08T14:01:15;13.50;;;8.60;;
59728;SDS011;45588;51.598;5.618;2023-07-08T14:03:40;27.58;;;9.85;;
59728;SDS011;45588;51.598;5.618;2023-07-08T14:06:10;13.50;;;8.47;;
59728;SDS011;45588;51.598;5.618;2023-07-08T14:08:36;11.55;;;7.80;;
59728;SDS011;45588;51.598;5.618;2023-07-08T14:11:01;13.10;;;9.03;;
59728;SDS011;45588;51.598;5.618;2023-07-08T14:13:26;13.80;;;9.23;;
59728;SDS011;45588;51.598;5.618;2023-07-08T14:15:52;15.45;;;9.13;;
59728;SDS011;45588;51.598;5.618;2023-07-08T14:18:18;16.25;;;8.73;;
59728;SDS011;45588;51.598;5.618;2023-07-08T14:20:43;21.42;;;9.82;;
59728;SDS011;45588;51.598;5.618;2023-07-08T14:23:09;14.57;;;8.87;;
59728;SDS011;45588;51.598;5.618;2023-07-08T14:25:34;14.90;;;9.20;;
59728;SDS011;45588;51.598;5.618;2023-07-08T14:27:59;17.40;;;9.10;;
59728;SDS011;45588;51.598;5.618;2023-07-08T14:30:24;14.73;;;9.03;;
59728;SDS011;45588;51.598;5.618;2023-07-08T14:32:50;12.77;;;8.73;;
59728;SDS011;45588;51.598;5.618;2023-07-08T14:35:16;18.37;;;9.10;;
59728;SDS011;45588;51.598;5.618;2023-07-08T14:37:42;14.55;;;8.82;;
59728;SDS011;45588;51.598;5.618;2023-07-08T14:40:22;17.23;;;8.85;;
59728;SDS011;45588;51.598;5.618;2023-07-08T14:42:48;13.13;;;9.35;;
59728;SDS011;45588;51.598;5.618;2023-07-08T14:45:14;15.70;;;8.57;;
59728;SDS011;45588;51.598;5.618;2023-07-08T14:47:39;15.37;;;8.70;;
59728;SDS011;45588;51.598;5.618;2023-07-08T14:50:14;14.97;;;9.47;;
59728;SDS011;45588;51.598;5.618;2023-07-08T14:52:40;16.83;;;8.52;;
59728;SDS011;45588;51.598;5.618;2023-07-08T14:55:05;15.33;;;8.60;;
59728;SDS011;45588;51.598;5.618;2023-07-08T14:57:32;16.90;;;8.10;;
59728;SDS011;45588;51.598;5.618;2023-07-08T14:59:59;17.95;;;9.38;;
59728;SDS011;45588;51.598;5.618;2023-07-08T15:02:25;22.35;;;9.57;;
59728;SDS011;45588;51.598;5.618;2023-07-08T15:04:50;13.65;;;8.73;;
59728;SDS011;45588;51.598;5.618;2023-07-08T15:07:18;15.20;;;9.40;;
59728;SDS011;45588;51.598;5.618;2023-07-08T15:09:44;12.90;;;9.15;;
59728;SDS011;45588;51.598;5.618;2023-07-08T15:12:09;13.15;;;8.45;;
59728;SDS011;45588;51.598;5.618;2023-07-08T15:14:35;15.68;;;9.23;;
59728;SDS011;45588;51.598;5.618;2023-07-08T15:17:00;15.60;;;9.23;;
59728;SDS011;45588;51.598;5.618;2023-07-08T15:19:25;11.73;;;8.13;;
59728;SDS011;45588;51.598;5.618;2023-07-08T15:21:53;15.52;;;9.05;;
59728;SDS011;45588;51.598;5.618;2023-07-08T15:24:18;17.40;;;9.33;;
59728;SDS011;45588;51.598;5.618;2023-07-08T15:26:45;15.77;;;9.77;;
59728;SDS011;45588;51.598;5.618;2023-07-08T15:29:15;14.88;;;8.88;;
59728;SDS011;45588;51.598;5.618;2023-07-08T15:31:40;12.25;;;9.23;;
59728;SDS011;45588;51.598;5.618;2023-07-08T15:34:16;14.13;;;8.87;;
59728;SDS011;45588;51.598;5.618;2023-07-08T15:36:42;14.27;;;9.25;;
59728;SDS011;45588;51.598;5.618;2023-07-08T15:39:07;12.73;;;8.93;;
59728;SDS011;45588;51.598;5.618;2023-07-08T15:41:32;14.53;;;9.20;;
59728;SDS011;45588;51.598;5.618;2023-07-08T15:43:58;16.20;;;9.65;;
59728;SDS011;45588;51.598;5.618;2023-07-08T15:46:31;12.75;;;9.48;;
59728;SDS011;45588;51.598;5.618;2023-07-08T15:48:56;17.52;;;10.57;;
59728;SDS011;45588;51.598;5.618;2023-07-08T15:51:22;17.47;;;9.87;;